KGVE/GVE METAR and TAF weather

Enter ICAO airport designator
Station Type Date Time Source
KGVE METAR 2019/04/20 18:10 UTC NOAA

KGVE 201810Z AUTO 21015G21KT 10SM SCT055 19/07 A2967 RMK AO1 T01920068


Station Type Date Time Source
KGVE Decoded METAR 2019/04/20 18:10 UTC NOAA

Station name not available
Apr 20, 2019 - 02:10 PM EDT / 2019.04.20 1810 UTC
Wind: from the SSW (210 degrees) at 17 MPH (15 KT) gusting to 24 MPH (21 KT):0
Visibility: 10 mile(s):0
Sky conditions: partly cloudy
Temperature: 66.6 F (19.2 C)
Dew Point: 44.2 F (6.8 C)
Relative Humidity: 44%
Pressure (altimeter): 29.67 in. Hg (1004 hPa)
ob: KGVE 201810Z AUTO 21015G21KT 10SM SCT055 19/07 A2967 RMK AO1 T01920068
cycle: 18

Station Type Date Time Source
KGVE TAF UTC NOAA

Error!

Example: see airport list